sensor_id;sensor_type;location;lat;lon;timestamp;temperature;humidity
32877;DHT22;19226;51.600;8.034;2024-03-25T00:02:24;6.70;99.90
32877;DHT22;19226;51.600;8.034;2024-03-25T00:05:09;6.70;99.90
32877;DHT22;19226;51.600;8.034;2024-03-25T00:07:55;6.70;99.90
32877;DHT22;19226;51.600;8.034;2024-03-25T00:10:39;6.70;99.90
32877;DHT22;19226;51.600;8.034;2024-03-25T00:13:24;6.60;99.90
32877;DHT22;19226;51.600;8.034;2024-03-25T00:16:08;6.70;99.90
32877;DHT22;19226;51.600;8.034;2024-03-25T00:18:53;6.70;99.90
32877;DHT22;19226;51.600;8.034;2024-03-25T00:21:37;6.60;99.90
32877;DHT22;19226;51.600;8.034;2024-03-25T00:24:22;6.60;99.90
32877;DHT22;19226;51.600;8.034;2024-03-25T00:27:06;6.60;99.90
32877;DHT22;19226;51.600;8.034;2024-03-25T00:29:51;6.60;99.90
32877;DHT22;19226;51.600;8.034;2024-03-25T00:32:36;6.60;99.90
32877;DHT22;19226;51.600;8.034;2024-03-25T00:35:20;6.60;99.90
32877;DHT22;19226;51.600;8.034;2024-03-25T00:38:05;6.60;99.90
32877;DHT22;19226;51.600;8.034;2024-03-25T00:40:51;6.50;99.90
32877;DHT22;19226;51.600;8.034;2024-03-25T00:43:36;6.50;99.90
32877;DHT22;19226;51.600;8.034;2024-03-25T00:46:21;6.50;99.90
32877;DHT22;19226;51.600;8.034;2024-03-25T00:49:05;6.40;99.90
32877;DHT22;19226;51.600;8.034;2024-03-25T00:51:50;6.40;99.90
32877;DHT22;19226;51.600;8.034;2024-03-25T00:54:34;6.40;99.90
32877;DHT22;19226;51.600;8.034;2024-03-25T00:57:19;6.50;99.90
32877;DHT22;19226;51.600;8.034;2024-03-25T01:00:04;6.40;99.90
32877;DHT22;19226;51.600;8.034;2024-03-25T01:02:49;6.40;99.90
32877;DHT22;19226;51.600;8.034;2024-03-25T01:05:33;6.40;99.90
32877;DHT22;19226;51.600;8.034;2024-03-25T01:08:18;6.50;99.90
32877;DHT22;19226;51.600;8.034;2024-03-25T01:11:04;6.50;99.90
32877;DHT22;19226;51.600;8.034;2024-03-25T01:13:49;6.50;99.90
32877;DHT22;19226;51.600;8.034;2024-03-25T01:16:33;6.50;99.90
32877;DHT22;19226;51.600;8.034;2024-03-25T01:19:18;6.50;99.90
32877;DHT22;19226;51.600;8.034;2024-03-25T01:22:03;6.40;99.90
32877;DHT22;19226;51.600;8.034;2024-03-25T01:24:49;6.40;99.90
32877;DHT22;19226;51.600;8.034;2024-03-25T01:27:34;6.40;99.90
32877;DHT22;19226;51.600;8.034;2024-03-25T01:30:18;6.40;99.90
32877;DHT22;19226;51.600;8.034;2024-03-25T01:33:03;6.40;99.90
32877;DHT22;19226;51.600;8.034;2024-03-25T01:35:47;6.40;99.90
32877;DHT22;19226;51.600;8.034;2024-03-25T01:38:32;6.40;99.90
32877;DHT22;19226;51.600;8.034;2024-03-25T01:41:20;6.40;99.90
32877;DHT22;19226;51.600;8.034;2024-03-25T01:44:06;6.40;99.90
32877;DHT22;19226;51.600;8.034;2024-03-25T01:46:51;6.40;99.90
32877;DHT22;19226;51.600;8.034;2024-03-25T01:49:37;6.40;99.90
32877;DHT22;19226;51.600;8.034;2024-03-25T01:52:25;6.40;99.90
32877;DHT22;19226;51.600;8.034;2024-03-25T01:55:21;6.40;99.90
32877;DHT22;19226;51.600;8.034;2024-03-25T01:58:09;6.40;99.90
32877;DHT22;19226;51.600;8.034;2024-03-25T02:00:54;6.30;99.90
32877;DHT22;19226;51.600;8.034;2024-03-25T02:03:39;6.30;99.90
32877;DHT22;19226;51.600;8.034;2024-03-25T02:06:26;6.30;99.90
32877;DHT22;19226;51.600;8.034;2024-03-25T02:09:12;6.20;99.90
32877;DHT22;19226;51.600;8.034;2024-03-25T02:11:57;6.20;99.90
32877;DHT22;19226;51.600;8.034;2024-03-25T02:14:42;6.20;99.90
32877;DHT22;19226;51.600;8.034;2024-03-25T02:17:27;6.20;99.90
32877;DHT22;19226;51.600;8.034;2024-03-25T02:20:18;6.20;99.90
32877;DHT22;19226;51.600;8.034;2024-03-25T02:23:02;6.10;99.90
32877;DHT22;19226;51.600;8.034;2024-03-25T02:25:51;6.20;99.90
32877;DHT22;19226;51.600;8.034;2024-03-25T02:28:35;6.20;99.90
32877;DHT22;19226;51.600;8.034;2024-03-25T02:31:20;6.20;99.90
32877;DHT22;19226;51.600;8.034;2024-03-25T02:34:04;6.20;99.90
32877;DHT22;19226;51.600;8.034;2024-03-25T02:36:49;6.20;99.90
32877;DHT22;19226;51.600;8.034;2024-03-25T02:39:34;6.20;99.90
32877;DHT22;19226;51.600;8.034;2024-03-25T02:42:19;6.20;99.90
32877;DHT22;19226;51.600;8.034;2024-03-25T02:45:04;6.20;99.90
32877;DHT22;19226;51.600;8.034;2024-03-25T02:48:04;6.20;99.90
32877;DHT22;19226;51.600;8.034;2024-03-25T02:50:49;6.20;99.90
32877;DHT22;19226;51.600;8.034;2024-03-25T02:53:34;6.20;99.90
32877;DHT22;19226;51.600;8.034;2024-03-25T02:56:25;6.20;99.90
32877;DHT22;19226;51.600;8.034;2024-03-25T02:59:09;6.20;99.90
32877;DHT22;19226;51.600;8.034;2024-03-25T03:01:54;6.20;99.90
32877;DHT22;19226;51.600;8.034;2024-03-25T03:04:39;6.10;99.90
32877;DHT22;19226;51.600;8.034;2024-03-25T03:07:23;6.10;99.90
32877;DHT22;19226;51.600;8.034;2024-03-25T03:10:08;6.20;99.90
32877;DHT22;19226;51.600;8.034;2024-03-25T03:12:53;6.20;99.90
32877;DHT22;19226;51.600;8.034;2024-03-25T03:15:37;6.20;99.90
32877;DHT22;19226;51.600;8.034;2024-03-25T03:18:22;6.20;99.90
32877;DHT22;19226;51.600;8.034;2024-03-25T03:21:07;6.20;99.90
32877;DHT22;19226;51.600;8.034;2024-03-25T03:23:51;6.20;99.90
32877;DHT22;19226;51.600;8.034;2024-03-25T03:26:35;6.20;99.90
32877;DHT22;19226;51.600;8.034;2024-03-25T03:29:20;6.10;99.90
32877;DHT22;19226;51.600;8.034;2024-03-25T03:32:04;6.20;99.90
32877;DHT22;19226;51.600;8.034;2024-03-25T03:34:49;6.10;99.90
32877;DHT22;19226;51.600;8.034;2024-03-25T03:37:33;6.10;99.90
32877;DHT22;19226;51.600;8.034;2024-03-25T03:40:18;6.10;99.90
32877;DHT22;19226;51.600;8.034;2024-03-25T03:43:02;6.10;99.90
32877;DHT22;19226;51.600;8.034;2024-03-25T03:45:47;6.10;99.90
32877;DHT22;19226;51.600;8.034;2024-03-25T03:48:31;6.10;99.90
32877;DHT22;19226;51.600;8.034;2024-03-25T03:51:16;6.10;99.90
32877;DHT22;19226;51.600;8.034;2024-03-25T03:54:00;6.10;99.90
32877;DHT22;19226;51.600;8.034;2024-03-25T03:56:45;6.10;99.90
32877;DHT22;19226;51.600;8.034;2024-03-25T03:59:29;6.10;99.90
32877;DHT22;19226;51.600;8.034;2024-03-25T04:02:14;6.10;99.90
32877;DHT22;19226;51.600;8.034;2024-03-25T04:04:59;6.00;99.90
32877;DHT22;19226;51.600;8.034;2024-03-25T04:07:43;6.00;99.90
32877;DHT22;19226;51.600;8.034;2024-03-25T04:10:28;6.00;99.90
32877;DHT22;19226;51.600;8.034;2024-03-25T04:13:13;6.00;99.90
32877;DHT22;19226;51.600;8.034;2024-03-25T04:16:01;6.00;99.90
32877;DHT22;19226;51.600;8.034;2024-03-25T04:18:47;6.00;99.90
32877;DHT22;19226;51.600;8.034;2024-03-25T04:21:31;6.00;99.90
32877;DHT22;19226;51.600;8.034;2024-03-25T04:24:16;5.90;99.90
32877;DHT22;19226;51.600;8.034;2024-03-25T04:27:01;5.90;99.90
32877;DHT22;19226;51.600;8.034;2024-03-25T04:29:45;5.90;99.90
32877;DHT22;19226;51.600;8.034;2024-03-25T04:32:30;6.00;99.90
32877;DHT22;19226;51.600;8.034;2024-03-25T04:35:15;5.90;99.90
32877;DHT22;19226;51.600;8.034;2024-03-25T04:37:59;5.90;99.90
32877;DHT22;19226;51.600;8.034;2024-03-25T04:40:44;5.90;99.90
32877;DHT22;19226;51.600;8.034;2024-03-25T04:43:28;6.00;99.90
32877;DHT22;19226;51.600;8.034;2024-03-25T04:46:13;6.00;99.90
32877;DHT22;19226;51.600;8.034;2024-03-25T04:48:57;6.00;99.90
32877;DHT22;19226;51.600;8.034;2024-03-25T04:51:42;6.00;99.90
32877;DHT22;19226;51.600;8.034;2024-03-25T04:54:27;6.00;99.90
32877;DHT22;19226;51.600;8.034;2024-03-25T04:57:11;6.00;99.90
32877;DHT22;19226;51.600;8.034;2024-03-25T04:59:56;6.00;99.90
32877;DHT22;19226;51.600;8.034;2024-03-25T05:02:40;6.00;99.90
32877;DHT22;19226;51.600;8.034;2024-03-25T05:05:25;6.10;99.90
32877;DHT22;19226;51.600;8.034;2024-03-25T05:08:09;6.10;99.90
32877;DHT22;19226;51.600;8.034;2024-03-25T05:10:54;6.10;99.90
32877;DHT22;19226;51.600;8.034;2024-03-25T05:13:38;6.10;99.90
32877;DHT22;19226;51.600;8.034;2024-03-25T05:16:23;6.10;99.90
32877;DHT22;19226;51.600;8.034;2024-03-25T05:19:07;6.10;99.90
32877;DHT22;19226;51.600;8.034;2024-03-25T05:21:54;6.10;99.90
32877;DHT22;19226;51.600;8.034;2024-03-25T05:24:39;6.00;99.90
32877;DHT22;19226;51.600;8.034;2024-03-25T05:27:24;6.10;99.90
32877;DHT22;19226;51.600;8.034;2024-03-25T05:30:08;6.00;99.90
32877;DHT22;19226;51.600;8.034;2024-03-25T05:32:53;6.00;99.90
32877;DHT22;19226;51.600;8.034;2024-03-25T05:35:37;6.00;99.90
32877;DHT22;19226;51.600;8.034;2024-03-25T05:38:22;6.00;99.90
32877;DHT22;19226;51.600;8.034;2024-03-25T05:41:06;6.00;99.90
32877;DHT22;19226;51.600;8.034;2024-03-25T05:43:52;6.00;99.90
32877;DHT22;19226;51.600;8.034;2024-03-25T05:46:38;6.00;99.90
32877;DHT22;19226;51.600;8.034;2024-03-25T05:49:22;6.10;99.90
32877;DHT22;19226;51.600;8.034;2024-03-25T05:52:07;6.10;99.90
32877;DHT22;19226;51.600;8.034;2024-03-25T05:54:53;6.10;99.90
32877;DHT22;19226;51.600;8.034;2024-03-25T05:57:37;6.10;99.90
32877;DHT22;19226;51.600;8.034;2024-03-25T06:00:22;6.10;99.90
32877;DHT22;19226;51.600;8.034;2024-03-25T06:03:06;6.10;99.90
32877;DHT22;19226;51.600;8.034;2024-03-25T06:05:52;6.10;99.90
32877;DHT22;19226;51.600;8.034;2024-03-25T06:08:37;6.20;99.90
32877;DHT22;19226;51.600;8.034;2024-03-25T06:11:22;6.10;99.90
32877;DHT22;19226;51.600;8.034;2024-03-25T06:14:06;6.10;99.90
32877;DHT22;19226;51.600;8.034;2024-03-25T06:16:51;6.10;99.90
32877;DHT22;19226;51.600;8.034;2024-03-25T06:19:37;6.10;99.90
32877;DHT22;19226;51.600;8.034;2024-03-25T06:22:23;6.10;99.90
32877;DHT22;19226;51.600;8.034;2024-03-25T06:25:07;6.10;99.90
32877;DHT22;19226;51.600;8.034;2024-03-25T06:27:51;6.10;99.90
32877;DHT22;19226;51.600;8.034;2024-03-25T06:30:36;6.20;99.90
32877;DHT22;19226;51.600;8.034;2024-03-25T06:33:39;6.20;99.90
32877;DHT22;19226;51.600;8.034;2024-03-25T06:36:42;6.20;99.90
32877;DHT22;19226;51.600;8.034;2024-03-25T06:39:27;6.20;99.90
32877;DHT22;19226;51.600;8.034;2024-03-25T06:42:12;6.30;99.90
32877;DHT22;19226;51.600;8.034;2024-03-25T06:45:00;6.30;99.90
32877;DHT22;19226;51.600;8.034;2024-03-25T06:47:46;6.30;99.90
32877;DHT22;19226;51.600;8.034;2024-03-25T06:50:33;6.30;99.90
32877;DHT22;19226;51.600;8.034;2024-03-25T06:53:19;6.30;99.90
32877;DHT22;19226;51.600;8.034;2024-03-25T06:56:09;6.30;99.90
32877;DHT22;19226;51.600;8.034;2024-03-25T06:58:55;6.30;99.90
32877;DHT22;19226;51.600;8.034;2024-03-25T07:01:40;6.40;99.90
32877;DHT22;19226;51.600;8.034;2024-03-25T07:04:25;6.40;99.90
32877;DHT22;19226;51.600;8.034;2024-03-25T07:07:10;6.40;99.90
32877;DHT22;19226;51.600;8.034;2024-03-25T07:09:54;6.40;99.90
32877;DHT22;19226;51.600;8.034;2024-03-25T07:12:41;6.50;99.90
32877;DHT22;19226;51.600;8.034;2024-03-25T07:15:26;6.50;99.90
32877;DHT22;19226;51.600;8.034;2024-03-25T07:18:10;6.60;99.90
32877;DHT22;19226;51.600;8.034;2024-03-25T07:20:59;6.60;99.90
32877;DHT22;19226;51.600;8.034;2024-03-25T07:23:45;6.60;99.90
32877;DHT22;19226;51.600;8.034;2024-03-25T07:26:29;6.70;99.90
32877;DHT22;19226;51.600;8.034;2024-03-25T07:29:14;6.70;99.90
32877;DHT22;19226;51.600;8.034;2024-03-25T07:31:58;6.70;99.90
32877;DHT22;19226;51.600;8.034;2024-03-25T07:34:44;6.70;99.90
32877;DHT22;19226;51.600;8.034;2024-03-25T07:37:38;6.70;99.90
32877;DHT22;19226;51.600;8.034;2024-03-25T07:40:25;6.80;99.90
32877;DHT22;19226;51.600;8.034;2024-03-25T07:43:09;6.80;99.90
32877;DHT22;19226;51.600;8.034;2024-03-25T07:45:54;6.80;99.90
32877;DHT22;19226;51.600;8.034;2024-03-25T07:48:38;6.90;99.90
32877;DHT22;19226;51.600;8.034;2024-03-25T07:51:24;6.90;99.90
32877;DHT22;19226;51.600;8.034;2024-03-25T07:54:08;7.00;99.90
32877;DHT22;19226;51.600;8.034;2024-03-25T07:56:54;7.00;99.90
32877;DHT22;19226;51.600;8.034;2024-03-25T07:59:38;7.10;99.90
32877;DHT22;19226;51.600;8.034;2024-03-25T08:02:23;7.20;99.90
32877;DHT22;19226;51.600;8.034;2024-03-25T08:05:07;7.20;99.90
32877;DHT22;19226;51.600;8.034;2024-03-25T08:07:52;7.20;99.90
32877;DHT22;19226;51.600;8.034;2024-03-25T08:10:37;7.20;99.90
32877;DHT22;19226;51.600;8.034;2024-03-25T08:13:22;7.20;99.90
32877;DHT22;19226;51.600;8.034;2024-03-25T08:16:07;7.30;99.90
32877;DHT22;19226;51.600;8.034;2024-03-25T08:18:52;7.40;99.90
32877;DHT22;19226;51.600;8.034;2024-03-25T08:21:36;7.50;99.90
32877;DHT22;19226;51.600;8.034;2024-03-25T08:24:21;7.50;99.90
32877;DHT22;19226;51.600;8.034;2024-03-25T08:27:05;7.60;99.90
32877;DHT22;19226;51.600;8.034;2024-03-25T08:29:49;7.70;99.90
32877;DHT22;19226;51.600;8.034;2024-03-25T08:32:37;7.80;99.90
32877;DHT22;19226;51.600;8.034;2024-03-25T08:35:22;7.90;99.90
32877;DHT22;19226;51.600;8.034;2024-03-25T08:38:06;7.90;99.90
32877;DHT22;19226;51.600;8.034;2024-03-25T08:40:51;8.00;99.90
32877;DHT22;19226;51.600;8.034;2024-03-25T08:43:35;8.10;99.90
32877;DHT22;19226;51.600;8.034;2024-03-25T08:46:20;8.10;99.90
32877;DHT22;19226;51.600;8.034;2024-03-25T08:49:04;8.20;99.90
32877;DHT22;19226;51.600;8.034;2024-03-25T08:51:51;8.30;99.90
32877;DHT22;19226;51.600;8.034;2024-03-25T08:54:35;8.40;99.90
32877;DHT22;19226;51.600;8.034;2024-03-25T08:57:20;8.40;99.90
32877;DHT22;19226;51.600;8.034;2024-03-25T09:00:12;8.50;99.90
32877;DHT22;19226;51.600;8.034;2024-03-25T09:02:56;8.60;99.90
32877;DHT22;19226;51.600;8.034;2024-03-25T09:05:41;8.70;99.90
32877;DHT22;19226;51.600;8.034;2024-03-25T09:08:27;8.80;99.90
32877;DHT22;19226;51.600;8.034;2024-03-25T09:11:12;8.90;99.90
32877;DHT22;19226;51.600;8.034;2024-03-25T09:13:56;9.00;99.90
32877;DHT22;19226;51.600;8.034;2024-03-25T09:16:41;9.20;99.90
32877;DHT22;19226;51.600;8.034;2024-03-25T09:19:26;9.30;99.90
32877;DHT22;19226;51.600;8.034;2024-03-25T09:22:10;9.30;99.90
32877;DHT22;19226;51.600;8.034;2024-03-25T09:24:56;9.40;99.90
32877;DHT22;19226;51.600;8.034;2024-03-25T09:27:45;9.60;99.90
32877;DHT22;19226;51.600;8.034;2024-03-25T09:30:29;9.70;99.90
32877;DHT22;19226;51.600;8.034;2024-03-25T09:33:14;9.70;99.90
32877;DHT22;19226;51.600;8.034;2024-03-25T09:35:58;9.70;99.90
32877;DHT22;19226;51.600;8.034;2024-03-25T09:38:43;9.80;99.90
32877;DHT22;19226;51.600;8.034;2024-03-25T09:41:28;10.00;99.90
32877;DHT22;19226;51.600;8.034;2024-03-25T09:44:15;10.20;99.90
32877;DHT22;19226;51.600;8.034;2024-03-25T09:47:18;10.20;99.90
32877;DHT22;19226;51.600;8.034;2024-03-25T09:50:04;10.20;99.90
32877;DHT22;19226;51.600;8.034;2024-03-25T09:52:50;10.30;99.90
32877;DHT22;19226;51.600;8.034;2024-03-25T09:55:35;10.50;99.90
32877;DHT22;19226;51.600;8.034;2024-03-25T09:58:20;10.70;99.90
32877;DHT22;19226;51.600;8.034;2024-03-25T10:01:06;10.90;99.90
32877;DHT22;19226;51.600;8.034;2024-03-25T10:03:50;11.10;99.90
32877;DHT22;19226;51.600;8.034;2024-03-25T10:06:35;11.10;99.90
32877;DHT22;19226;51.600;8.034;2024-03-25T10:09:20;11.10;99.90
32877;DHT22;19226;51.600;8.034;2024-03-25T10:12:06;11.20;99.90
32877;DHT22;19226;51.600;8.034;2024-03-25T10:14:51;11.40;99.90
32877;DHT22;19226;51.600;8.034;2024-03-25T10:17:36;11.50;99.90
32877;DHT22;19226;51.600;8.034;2024-03-25T10:20:20;11.70;99.90
32877;DHT22;19226;51.600;8.034;2024-03-25T10:23:05;11.80;99.90
32877;DHT22;19226;51.600;8.034;2024-03-25T10:25:52;11.80;99.90
32877;DHT22;19226;51.600;8.034;2024-03-25T10:28:37;11.90;99.90
32877;DHT22;19226;51.600;8.034;2024-03-25T10:31:21;12.00;99.90
32877;DHT22;19226;51.600;8.034;2024-03-25T10:34:06;12.10;99.90
32877;DHT22;19226;51.600;8.034;2024-03-25T10:36:56;12.10;99.90
32877;DHT22;19226;51.600;8.034;2024-03-25T10:39:47;12.20;99.90
32877;DHT22;19226;51.600;8.034;2024-03-25T10:42:34;12.20;99.90
32877;DHT22;19226;51.600;8.034;2024-03-25T10:45:19;12.20;99.90
32877;DHT22;19226;51.600;8.034;2024-03-25T10:48:35;12.40;99.90
32877;DHT22;19226;51.600;8.034;2024-03-25T10:51:21;12.50;99.90
32877;DHT22;19226;51.600;8.034;2024-03-25T10:54:06;12.70;99.90
32877;DHT22;19226;51.600;8.034;2024-03-25T10:56:51;12.90;99.90
32877;DHT22;19226;51.600;8.034;2024-03-25T10:59:37;13.00;99.90
32877;DHT22;19226;51.600;8.034;2024-03-25T11:02:25;13.10;99.90
32877;DHT22;19226;51.600;8.034;2024-03-25T11:05:10;13.10;99.90
32877;DHT22;19226;51.600;8.034;2024-03-25T11:07:56;13.10;99.90
32877;DHT22;19226;51.600;8.034;2024-03-25T11:10:44;13.30;99.90
32877;DHT22;19226;51.600;8.034;2024-03-25T11:13:31;13.40;99.90
32877;DHT22;19226;51.600;8.034;2024-03-25T11:16:28;13.60;99.90
32877;DHT22;19226;51.600;8.034;2024-03-25T11:19:13;13.80;99.90
32877;DHT22;19226;51.600;8.034;2024-03-25T11:22:09;13.80;99.90
32877;DHT22;19226;51.600;8.034;2024-03-25T11:24:55;13.70;99.90
32877;DHT22;19226;51.600;8.034;2024-03-25T11:27:39;13.50;99.90
32877;DHT22;19226;51.600;8.034;2024-03-25T11:30:29;13.60;99.90
32877;DHT22;19226;51.600;8.034;2024-03-25T11:33:15;13.70;99.90
32877;DHT22;19226;51.600;8.034;2024-03-25T11:36:00;13.50;99.90
32877;DHT22;19226;51.600;8.034;2024-03-25T11:38:45;13.40;99.90
32877;DHT22;19226;51.600;8.034;2024-03-25T11:41:33;13.50;99.90
32877;DHT22;19226;51.600;8.034;2024-03-25T11:44:19;13.50;99.90
32877;DHT22;19226;51.600;8.034;2024-03-25T11:47:04;13.50;99.90
32877;DHT22;19226;51.600;8.034;2024-03-25T11:49:49;13.50;99.90
32877;DHT22;19226;51.600;8.034;2024-03-25T11:52:34;13.50;99.90
32877;DHT22;19226;51.600;8.034;2024-03-25T11:55:19;13.50;99.90
32877;DHT22;19226;51.600;8.034;2024-03-25T11:58:07;13.60;99.90
32877;DHT22;19226;51.600;8.034;2024-03-25T12:00:53;13.60;99.90
32877;DHT22;19226;51.600;8.034;2024-03-25T12:03:37;13.50;99.90
32877;DHT22;19226;51.600;8.034;2024-03-25T12:06:22;13.60;99.90
32877;DHT22;19226;51.600;8.034;2024-03-25T12:09:06;13.80;99.90
32877;DHT22;19226;51.600;8.034;2024-03-25T12:12:09;14.00;99.90
32877;DHT22;19226;51.600;8.034;2024-03-25T12:14:55;14.10;99.90
32877;DHT22;19226;51.600;8.034;2024-03-25T12:17:44;14.20;99.90
32877;DHT22;19226;51.600;8.034;2024-03-25T12:20:30;14.20;99.90
32877;DHT22;19226;51.600;8.034;2024-03-25T12:23:16;14.10;99.90
32877;DHT22;19226;51.600;8.034;2024-03-25T12:26:02;13.80;99.90
32877;DHT22;19226;51.600;8.034;2024-03-25T12:28:47;13.60;99.90
32877;DHT22;19226;51.600;8.034;2024-03-25T12:31:32;13.60;99.90
32877;DHT22;19226;51.600;8.034;2024-03-25T12:34:16;13.70;99.90
32877;DHT22;19226;51.600;8.034;2024-03-25T12:37:02;13.70;99.90
32877;DHT22;19226;51.600;8.034;2024-03-25T12:39:49;13.80;99.90
32877;DHT22;19226;51.600;8.034;2024-03-25T12:42:35;14.00;99.90
32877;DHT22;19226;51.600;8.034;2024-03-25T12:45:23;14.20;99.90
32877;DHT22;19226;51.600;8.034;2024-03-25T12:48:08;14.30;99.90
32877;DHT22;19226;51.600;8.034;2024-03-25T12:50:53;14.50;99.90
32877;DHT22;19226;51.600;8.034;2024-03-25T12:53:44;14.40;99.90
32877;DHT22;19226;51.600;8.034;2024-03-25T12:56:29;14.40;99.90
32877;DHT22;19226;51.600;8.034;2024-03-25T12:59:14;14.60;99.90
32877;DHT22;19226;51.600;8.034;2024-03-25T13:01:58;14.30;99.90
32877;DHT22;19226;51.600;8.034;2024-03-25T13:04:43;14.00;99.90
32877;DHT22;19226;51.600;8.034;2024-03-25T13:07:28;13.80;99.90
32877;DHT22;19226;51.600;8.034;2024-03-25T13:10:13;13.60;99.90
32877;DHT22;19226;51.600;8.034;2024-03-25T13:12:59;13.80;99.90
32877;DHT22;19226;51.600;8.034;2024-03-25T13:15:45;14.00;99.90
32877;DHT22;19226;51.600;8.034;2024-03-25T13:18:29;14.20;99.90
32877;DHT22;19226;51.600;8.034;2024-03-25T13:21:14;14.30;99.90
32877;DHT22;19226;51.600;8.034;2024-03-25T13:23:59;14.40;99.90
32877;DHT22;19226;51.600;8.034;2024-03-25T13:26:43;14.40;99.90
32877;DHT22;19226;51.600;8.034;2024-03-25T13:29:28;14.40;99.90
32877;DHT22;19226;51.600;8.034;2024-03-25T13:32:12;14.30;99.90
32877;DHT22;19226;51.600;8.034;2024-03-25T13:34:57;14.10;99.90
32877;DHT22;19226;51.600;8.034;2024-03-25T13:37:41;14.10;99.90
32877;DHT22;19226;51.600;8.034;2024-03-25T13:40:26;14.20;99.90
32877;DHT22;19226;51.600;8.034;2024-03-25T13:43:10;14.40;99.90
32877;DHT22;19226;51.600;8.034;2024-03-25T13:45:55;14.70;99.90
32877;DHT22;19226;51.600;8.034;2024-03-25T13:48:39;14.90;99.90
32877;DHT22;19226;51.600;8.034;2024-03-25T13:51:24;15.00;99.90
32877;DHT22;19226;51.600;8.034;2024-03-25T13:54:08;15.10;99.90
32877;DHT22;19226;51.600;8.034;2024-03-25T13:56:53;15.10;99.90
32877;DHT22;19226;51.600;8.034;2024-03-25T13:59:38;15.10;99.90
32877;DHT22;19226;51.600;8.034;2024-03-25T14:02:23;15.10;99.90
32877;DHT22;19226;51.600;8.034;2024-03-25T14:05:07;15.30;99.90
32877;DHT22;19226;51.600;8.034;2024-03-25T14:07:52;15.60;99.90
32877;DHT22;19226;51.600;8.034;2024-03-25T14:10:37;15.70;99.90
32877;DHT22;19226;51.600;8.034;2024-03-25T14:13:21;15.70;99.90
32877;DHT22;19226;51.600;8.034;2024-03-25T14:16:06;15.50;99.90
32877;DHT22;19226;51.600;8.034;2024-03-25T14:18:50;15.40;99.90
32877;DHT22;19226;51.600;8.034;2024-03-25T14:21:35;15.30;99.90
32877;DHT22;19226;51.600;8.034;2024-03-25T14:24:19;15.30;99.90
32877;DHT22;19226;51.600;8.034;2024-03-25T14:27:04;15.30;99.90
32877;DHT22;19226;51.600;8.034;2024-03-25T14:29:48;15.30;99.90
32877;DHT22;19226;51.600;8.034;2024-03-25T14:32:33;15.20;99.90
32877;DHT22;19226;51.600;8.034;2024-03-25T14:35:18;15.20;99.90
32877;DHT22;19226;51.600;8.034;2024-03-25T14:38:03;15.10;99.90
32877;DHT22;19226;51.600;8.034;2024-03-25T14:40:47;15.10;99.90
32877;DHT22;19226;51.600;8.034;2024-03-25T14:43:32;15.40;99.90
32877;DHT22;19226;51.600;8.034;2024-03-25T14:46:16;15.60;99.90
32877;DHT22;19226;51.600;8.034;2024-03-25T14:49:01;15.90;99.90
32877;DHT22;19226;51.600;8.034;2024-03-25T14:51:45;16.00;99.90
32877;DHT22;19226;51.600;8.034;2024-03-25T14:54:34;15.80;99.90
32877;DHT22;19226;51.600;8.034;2024-03-25T14:57:21;15.40;99.90
32877;DHT22;19226;51.600;8.034;2024-03-25T15:00:06;15.00;99.90
32877;DHT22;19226;51.600;8.034;2024-03-25T15:02:51;15.00;99.90
32877;DHT22;19226;51.600;8.034;2024-03-25T15:05:36;15.10;99.90
32877;DHT22;19226;51.600;8.034;2024-03-25T15:08:20;15.40;99.90
32877;DHT22;19226;51.600;8.034;2024-03-25T15:11:05;15.70;99.90
32877;DHT22;19226;51.600;8.034;2024-03-25T15:13:51;15.60;99.90
32877;DHT22;19226;51.600;8.034;2024-03-25T15:16:36;15.70;99.90
32877;DHT22;19226;51.600;8.034;2024-03-25T15:19:20;15.70;99.90
32877;DHT22;19226;51.600;8.034;2024-03-25T15:22:05;15.60;99.90
32877;DHT22;19226;51.600;8.034;2024-03-25T15:24:50;15.50;99.90
32877;DHT22;19226;51.600;8.034;2024-03-25T15:27:34;15.40;99.90
32877;DHT22;19226;51.600;8.034;2024-03-25T15:30:19;15.40;99.90
32877;DHT22;19226;51.600;8.034;2024-03-25T15:33:05;15.50;99.90
32877;DHT22;19226;51.600;8.034;2024-03-25T15:35:50;15.40;99.90
32877;DHT22;19226;51.600;8.034;2024-03-25T15:38:35;15.50;99.90
32877;DHT22;19226;51.600;8.034;2024-03-25T15:41:20;15.60;99.90
32877;DHT22;19226;51.600;8.034;2024-03-25T15:44:04;15.70;99.90
32877;DHT22;19226;51.600;8.034;2024-03-25T15:46:50;15.70;99.90
32877;DHT22;19226;51.600;8.034;2024-03-25T15:49:35;15.70;99.90
32877;DHT22;19226;51.600;8.034;2024-03-25T15:52:20;15.80;99.90
32877;DHT22;19226;51.600;8.034;2024-03-25T15:55:04;15.80;99.90
32877;DHT22;19226;51.600;8.034;2024-03-25T15:57:49;16.00;99.90
32877;DHT22;19226;51.600;8.034;2024-03-25T16:00:39;16.10;99.90
32877;DHT22;19226;51.600;8.034;2024-03-25T16:03:25;16.30;99.90
32877;DHT22;19226;51.600;8.034;2024-03-25T16:06:09;16.40;99.90
32877;DHT22;19226;51.600;8.034;2024-03-25T16:08:54;16.40;99.90
32877;DHT22;19226;51.600;8.034;2024-03-25T16:11:38;16.50;99.90
32877;DHT22;19226;51.600;8.034;2024-03-25T16:14:23;16.60;99.90
32877;DHT22;19226;51.600;8.034;2024-03-25T16:17:10;16.40;99.90
32877;DHT22;19226;51.600;8.034;2024-03-25T16:19:58;16.30;99.90
32877;DHT22;19226;51.600;8.034;2024-03-25T16:22:42;16.30;99.90
32877;DHT22;19226;51.600;8.034;2024-03-25T16:25:30;16.50;99.90
32877;DHT22;19226;51.600;8.034;2024-03-25T16:28:14;16.70;99.90
32877;DHT22;19226;51.600;8.034;2024-03-25T16:31:00;16.60;99.90
32877;DHT22;19226;51.600;8.034;2024-03-25T16:33:45;16.50;99.90
32877;DHT22;19226;51.600;8.034;2024-03-25T16:36:29;16.40;99.90
32877;DHT22;19226;51.600;8.034;2024-03-25T16:39:14;16.30;99.90
32877;DHT22;19226;51.600;8.034;2024-03-25T16:41:58;16.20;99.90
32877;DHT22;19226;51.600;8.034;2024-03-25T16:44:43;16.10;99.90
32877;DHT22;19226;51.600;8.034;2024-03-25T16:47:28;16.00;99.90
32877;DHT22;19226;51.600;8.034;2024-03-25T16:50:12;15.80;99.90
32877;DHT22;19226;51.600;8.034;2024-03-25T16:52:57;15.50;99.90
32877;DHT22;19226;51.600;8.034;2024-03-25T16:55:42;15.20;99.90
32877;DHT22;19226;51.600;8.034;2024-03-25T16:58:26;15.00;99.90
32877;DHT22;19226;51.600;8.034;2024-03-25T17:01:11;14.80;99.90
32877;DHT22;19226;51.600;8.034;2024-03-25T17:03:55;14.60;99.90
32877;DHT22;19226;51.600;8.034;2024-03-25T17:06:40;14.40;99.90
32877;DHT22;19226;51.600;8.034;2024-03-25T17:09:24;14.30;99.90
32877;DHT22;19226;51.600;8.034;2024-03-25T17:12:09;14.10;99.90
32877;DHT22;19226;51.600;8.034;2024-03-25T17:14:53;14.00;99.90
32877;DHT22;19226;51.600;8.034;2024-03-25T17:17:38;13.90;99.90
32877;DHT22;19226;51.600;8.034;2024-03-25T17:20:22;13.70;99.90
32877;DHT22;19226;51.600;8.034;2024-03-25T17:23:07;13.60;99.90
32877;DHT22;19226;51.600;8.034;2024-03-25T17:25:51;13.50;99.90
32877;DHT22;19226;51.600;8.034;2024-03-25T17:28:36;13.40;99.90
32877;DHT22;19226;51.600;8.034;2024-03-25T17:31:20;13.30;99.90
32877;DHT22;19226;51.600;8.034;2024-03-25T17:34:05;13.20;99.90
32877;DHT22;19226;51.600;8.034;2024-03-25T17:36:51;13.10;99.90